sensor_id;sensor_type;location;lat;lon;timestamp;pressure;altitude;pressure_sealevel;temperature;humidity
72055;BME280;59936;51.490;5.436;2023-04-21T00:01:49;101382.59;;;6.96;72.74
72055;BME280;59936;51.490;5.436;2023-04-21T00:04:15;101382.59;;;6.96;72.74
72055;BME280;59936;51.490;5.436;2023-04-21T00:06:41;101372.19;;;6.93;73.24
72055;BME280;59936;51.490;5.436;2023-04-21T00:09:07;101365.78;;;6.95;71.77
72055;BME280;59936;51.490;5.436;2023-04-21T00:11:33;101367.59;;;6.95;72.26
72055;BME280;59936;51.490;5.436;2023-04-21T00:13:59;101363.84;;;6.97;74.02
72055;BME280;59936;51.490;5.436;2023-04-21T00:16:25;101363.84;;;6.97;74.02
72055;BME280;59936;51.490;5.436;2023-04-21T00:18:51;101353.31;;;6.96;72.15
72055;BME280;59936;51.490;5.436;2023-04-21T00:21:16;101353.31;;;6.96;72.15
72055;BME280;59936;51.490;5.436;2023-04-21T00:23:42;101344.59;;;6.94;75.35
72055;BME280;59936;51.490;5.436;2023-04-21T00:26:08;101343.88;;;6.92;74.73
72055;BME280;59936;51.490;5.436;2023-04-21T00:28:34;101338.56;;;6.92;72.45
72055;BME280;59936;51.490;5.436;2023-04-21T00:31:00;101341.69;;;6.97;73.43
72055;BME280;59936;51.490;5.436;2023-04-21T00:33:26;101341.69;;;6.97;73.43
72055;BME280;59936;51.490;5.436;2023-04-21T00:35:52;101340.72;;;6.98;72.04
72055;BME280;59936;51.490;5.436;2023-04-21T00:38:18;101340.72;;;6.98;72.04
72055;BME280;59936;51.490;5.436;2023-04-21T00:40:43;101336.63;;;6.94;72.76
72055;BME280;59936;51.490;5.436;2023-04-21T00:43:09;101336.63;;;6.94;72.76
72055;BME280;59936;51.490;5.436;2023-04-21T00:45:35;101325.25;;;6.92;72.29
72055;BME280;59936;51.490;5.436;2023-04-21T00:48:01;101334.94;;;6.93;71.64
72055;BME280;59936;51.490;5.436;2023-04-21T00:50:27;101333.13;;;6.93;71.89
72055;BME280;59936;51.490;5.436;2023-04-21T00:52:54;101340.84;;;6.96;75.29
72055;BME280;59936;51.490;5.436;2023-04-21T00:55:20;101340.84;;;6.96;75.29
72055;BME280;59936;51.490;5.436;2023-04-21T00:57:47;101333.13;;;6.93;72.87
72055;BME280;59936;51.490;5.436;2023-04-21T01:00:16;101331.28;;;6.94;74.23
72055;BME280;59936;51.490;5.436;2023-04-21T01:02:42;101326.94;;;6.93;75.04
72055;BME280;59936;51.490;5.436;2023-04-21T01:05:08;101328.63;;;6.94;74.45
72055;BME280;59936;51.490;5.436;2023-04-21T01:07:34;101321.38;;;6.96;73.78
72055;BME280;59936;51.490;5.436;2023-04-21T01:10:00;101321.38;;;6.96;73.78
72055;BME280;59936;51.490;5.436;2023-04-21T01:12:26;101314.34;;;6.95;79.14
72055;BME280;59936;51.490;5.436;2023-04-21T01:14:55;101311.94;;;6.92;73.98
72055;BME280;59936;51.490;5.436;2023-04-21T01:17:21;101310.13;;;6.92;73.26
72055;BME280;59936;51.490;5.436;2023-04-21T01:19:47;101306.09;;;6.98;73.24
72055;BME280;59936;51.490;5.436;2023-04-21T01:22:14;101306.09;;;6.98;73.24
72055;BME280;59936;51.490;5.436;2023-04-21T01:24:43;101308.91;;;6.96;74.06
72055;BME280;59936;51.490;5.436;2023-04-21T01:27:10;101308.91;;;6.96;74.06
72055;BME280;59936;51.490;5.436;2023-04-21T01:29:38;101283.50;;;6.92;73.00
72055;BME280;59936;51.490;5.436;2023-04-21T01:32:06;101286.28;;;6.91;73.21
72055;BME280;59936;51.490;5.436;2023-04-21T01:34:32;101285.56;;;6.89;73.16
72055;BME280;59936;51.490;5.436;2023-04-21T01:37:01;101285.56;;;6.89;73.26
72055;BME280;59936;51.490;5.436;2023-04-21T01:39:30;101284.72;;;6.88;74.49
72055;BME280;59936;51.490;5.436;2023-04-21T01:41:58;101286.41;;;6.89;74.81
72055;BME280;59936;51.490;5.436;2023-04-21T01:44:25;101286.41;;;6.89;74.81
72055;BME280;59936;51.490;5.436;2023-04-21T01:46:51;101277.88;;;6.86;75.35
72055;BME280;59936;51.490;5.436;2023-04-21T01:49:17;101282.06;;;6.88;83.03
72055;BME280;59936;51.490;5.436;2023-04-21T01:51:42;101269.28;;;6.82;78.40
72055;BME280;59936;51.490;5.436;2023-04-21T01:54:08;101261.44;;;6.81;76.82
72055;BME280;59936;51.490;5.436;2023-04-21T01:56:34;101254.41;;;6.80;77.01
72055;BME280;59936;51.490;5.436;2023-04-21T01:59:00;101254.41;;;6.80;77.01
72055;BME280;59936;51.490;5.436;2023-04-21T02:01:26;101252.84;;;6.77;75.63
72055;BME280;59936;51.490;5.436;2023-04-21T02:03:52;101248.97;;;6.81;77.55
72055;BME280;59936;51.490;5.436;2023-04-21T02:06:18;101227.81;;;6.80;78.95
72055;BME280;59936;51.490;5.436;2023-04-21T02:08:44;101233.38;;;6.77;76.74
72055;BME280;59936;51.490;5.436;2023-04-21T02:11:10;101239.69;;;6.76;76.75
72055;BME280;59936;51.490;5.436;2023-04-21T02:13:42;101241.50;;;6.75;76.33
72055;BME280;59936;51.490;5.436;2023-04-21T02:16:08;101239.53;;;6.77;76.23
72055;BME280;59936;51.490;5.436;2023-04-21T02:18:34;101241.97;;;6.80;75.40
72055;BME280;59936;51.490;5.436;2023-04-21T02:21:08;101241.81;;;6.82;75.15
72055;BME280;59936;51.490;5.436;2023-04-21T02:23:34;101230.72;;;6.77;77.19
72055;BME280;59936;51.490;5.436;2023-04-21T02:26:00;101225.91;;;6.71;76.52
72055;BME280;59936;51.490;5.436;2023-04-21T02:28:26;101227.94;;;6.67;76.40
72055;BME280;59936;51.490;5.436;2023-04-21T02:30:58;101224.22;;;6.70;76.38
72055;BME280;59936;51.490;5.436;2023-04-21T02:33:24;101224.22;;;6.70;76.38
72055;BME280;59936;51.490;5.436;2023-04-21T02:35:50;101217.06;;;6.70;75.13
72055;BME280;59936;51.490;5.436;2023-04-21T02:38:16;101214.16;;;6.73;75.60
72055;BME280;59936;51.490;5.436;2023-04-21T02:40:42;101218.38;;;6.76;77.26
72055;BME280;59936;51.490;5.436;2023-04-21T02:43:08;101216.56;;;6.76;75.98
72055;BME280;59936;51.490;5.436;2023-04-21T02:45:35;101223.56;;;6.77;75.59
72055;BME280;59936;51.490;5.436;2023-04-21T02:48:01;101227.28;;;6.86;74.71
72055;BME280;59936;51.490;5.436;2023-04-21T02:50:27;101227.28;;;6.86;74.71
72055;BME280;59936;51.490;5.436;2023-04-21T02:52:53;101231.19;;;6.82;74.65
72055;BME280;59936;51.490;5.436;2023-04-21T02:55:19;101222.22;;;6.83;75.01
72055;BME280;59936;51.490;5.436;2023-04-21T02:57:45;101218.84;;;6.81;74.58
72055;BME280;59936;51.490;5.436;2023-04-21T03:00:11;101217.88;;;6.82;74.24
72055;BME280;59936;51.490;5.436;2023-04-21T03:02:37;101216.31;;;6.79;74.63
72055;BME280;59936;51.490;5.436;2023-04-21T03:05:03;101225.91;;;6.71;75.58
72055;BME280;59936;51.490;5.436;2023-04-21T03:07:29;101225.91;;;6.71;75.58
72055;BME280;59936;51.490;5.436;2023-04-21T03:09:57;101221.84;;;6.55;74.60
72055;BME280;59936;51.490;5.436;2023-04-21T03:12:23;101214.63;;;6.46;75.21
72055;BME280;59936;51.490;5.436;2023-04-21T03:14:55;101214.69;;;6.35;74.54
72055;BME280;59936;51.490;5.436;2023-04-21T03:17:20;101221.47;;;6.28;74.53
72055;BME280;59936;51.490;5.436;2023-04-21T03:19:49;101221.41;;;6.18;74.47
72055;BME280;59936;51.490;5.436;2023-04-21T03:22:15;101224.78;;;6.20;76.17
72055;BME280;59936;51.490;5.436;2023-04-21T03:24:41;101225.34;;;6.24;76.34
72055;BME280;59936;51.490;5.436;2023-04-21T03:27:07;101230.94;;;6.21;75.65
72055;BME280;59936;51.490;5.436;2023-04-21T03:29:34;101215.59;;;6.13;76.03
72055;BME280;59936;51.490;5.436;2023-04-21T03:32:00;101224.91;;;6.08;75.33
72055;BME280;59936;51.490;5.436;2023-04-21T03:34:26;101222.00;;;6.11;75.00
72055;BME280;59936;51.490;5.436;2023-04-21T03:36:52;101222.00;;;6.11;75.00
72055;BME280;59936;51.490;5.436;2023-04-21T03:39:18;101216.69;;;6.11;76.86
72055;BME280;59936;51.490;5.436;2023-04-21T03:41:47;101215.22;;;6.18;75.58
72055;BME280;59936;51.490;5.436;2023-04-21T03:44:12;101218.59;;;6.20;75.92
72055;BME280;59936;51.490;5.436;2023-04-21T03:46:38;101214.25;;;6.19;75.49
72055;BME280;59936;51.490;5.436;2023-04-21T03:49:04;101214.25;;;6.19;75.49
72055;BME280;59936;51.490;5.436;2023-04-21T03:51:30;101215.00;;;6.10;74.83
72055;BME280;59936;51.490;5.436;2023-04-21T03:53:56;101215.38;;;6.05;74.49
72055;BME280;59936;51.490;5.436;2023-04-21T03:56:22;101216.22;;;6.06;74.79
72055;BME280;59936;51.490;5.436;2023-04-21T03:58:48;101221.16;;;6.10;79.82
72055;BME280;59936;51.490;5.436;2023-04-21T04:01:14;101215.94;;;6.20;76.43
72055;BME280;59936;51.490;5.436;2023-04-21T04:03:40;101219.06;;;6.25;75.44
72055;BME280;59936;51.490;5.436;2023-04-21T04:06:06;101219.66;;;6.28;75.12
72055;BME280;59936;51.490;5.436;2023-04-21T04:08:31;101221.47;;;6.28;74.85
72055;BME280;59936;51.490;5.436;2023-04-21T04:10:57;101216.63;;;6.33;78.08
72055;BME280;59936;51.490;5.436;2023-04-21T04:13:26;101216.38;;;6.36;75.15
72055;BME280;59936;51.490;5.436;2023-04-21T04:15:52;101216.00;;;6.41;74.67
72055;BME280;59936;51.490;5.436;2023-04-21T04:18:18;101204.81;;;6.47;74.23
72055;BME280;59936;51.490;5.436;2023-04-21T04:20:44;101201.31;;;6.46;76.52
72055;BME280;59936;51.490;5.436;2023-04-21T04:23:12;101202.97;;;6.58;74.19
72055;BME280;59936;51.490;5.436;2023-04-21T04:25:38;101202.97;;;6.58;74.19
72055;BME280;59936;51.490;5.436;2023-04-21T04:28:04;101201.88;;;6.61;73.90
72055;BME280;59936;51.490;5.436;2023-04-21T04:30:30;101202.47;;;6.64;74.12
72055;BME280;59936;51.490;5.436;2023-04-21T04:32:56;101201.31;;;6.67;74.00
72055;BME280;59936;51.490;5.436;2023-04-21T04:35:22;101194.19;;;6.68;74.26
72055;BME280;59936;51.490;5.436;2023-04-21T04:37:48;101198.56;;;6.69;74.19
72055;BME280;59936;51.490;5.436;2023-04-21T04:40:14;101201.22;;;6.69;74.41
72055;BME280;59936;51.490;5.436;2023-04-21T04:42:40;101203.63;;;6.72;74.33
72055;BME280;59936;51.490;5.436;2023-04-21T04:45:07;101200.25;;;6.70;76.99
72055;BME280;59936;51.490;5.436;2023-04-21T04:47:34;101209.56;;;6.75;75.83
72055;BME280;59936;51.490;5.436;2023-04-21T04:49:59;101208.31;;;6.79;75.21
72055;BME280;59936;51.490;5.436;2023-04-21T04:52:31;101209.75;;;6.83;74.68
72055;BME280;59936;51.490;5.436;2023-04-21T04:54:57;101216.22;;;6.90;74.86
72055;BME280;59936;51.490;5.436;2023-04-21T04:57:23;101216.22;;;6.90;74.86
72055;BME280;59936;51.490;5.436;2023-04-21T04:59:56;101204.88;;;6.88;74.89
72055;BME280;59936;51.490;5.436;2023-04-21T05:02:24;101205.72;;;6.89;75.35
72055;BME280;59936;51.490;5.436;2023-04-21T05:04:50;101208.84;;;6.94;74.88
72055;BME280;59936;51.490;5.436;2023-04-21T05:07:16;101209.16;;;7.01;75.17
72055;BME280;59936;51.490;5.436;2023-04-21T05:09:41;101212.56;;;7.12;74.85
72055;BME280;59936;51.490;5.436;2023-04-21T05:12:07;101212.56;;;7.12;74.85
72055;BME280;59936;51.490;5.436;2023-04-21T05:14:33;101211.47;;;7.15;75.24
72055;BME280;59936;51.490;5.436;2023-04-21T05:16:59;101211.22;;;7.18;77.61
72055;BME280;59936;51.490;5.436;2023-04-21T05:19:28;101217.13;;;7.21;77.60
72055;BME280;59936;51.490;5.436;2023-04-21T05:21:58;101214.47;;;7.21;78.07
72055;BME280;59936;51.490;5.436;2023-04-21T05:24:23;101221.34;;;7.24;76.95
72055;BME280;59936;51.490;5.436;2023-04-21T05:26:49;101220.97;;;7.38;77.21
72055;BME280;59936;51.490;5.436;2023-04-21T05:29:15;101220.97;;;7.38;77.21
72055;BME280;59936;51.490;5.436;2023-04-21T05:31:41;101227.09;;;7.59;76.77
72055;BME280;59936;51.490;5.436;2023-04-21T05:34:07;101229.19;;;7.56;78.78
72055;BME280;59936;51.490;5.436;2023-04-21T05:36:33;101229.19;;;7.56;78.78
72055;BME280;59936;51.490;5.436;2023-04-21T05:38:59;101238.72;;;7.49;77.71
72055;BME280;59936;51.490;5.436;2023-04-21T05:41:25;101233.25;;;7.50;76.43
72055;BME280;59936;51.490;5.436;2023-04-21T05:43:54;101233.78;;;7.54;76.58
72055;BME280;59936;51.490;5.436;2023-04-21T05:46:20;101240.69;;;7.56;77.98
72055;BME280;59936;51.490;5.436;2023-04-21T05:48:45;101238.88;;;7.57;77.26
72055;BME280;59936;51.490;5.436;2023-04-21T05:51:12;101243.84;;;7.71;76.69
72055;BME280;59936;51.490;5.436;2023-04-21T05:53:41;101243.84;;;7.71;76.69
72055;BME280;59936;51.490;5.436;2023-04-21T05:56:08;101240.88;;;7.74;76.91
72055;BME280;59936;51.490;5.436;2023-04-21T05:58:34;101238.09;;;7.76;78.22
72055;BME280;59936;51.490;5.436;2023-04-21T06:01:02;101241.19;;;7.71;77.35
72055;BME280;59936;51.490;5.436;2023-04-21T06:03:32;101228.53;;;7.73;76.88
72055;BME280;59936;51.490;5.436;2023-04-21T06:05:58;101225.88;;;7.73;77.34
72055;BME280;59936;51.490;5.436;2023-04-21T06:08:31;101241.44;;;8.27;77.34
72055;BME280;59936;51.490;5.436;2023-04-21T06:10:57;101241.44;;;8.27;77.34
72055;BME280;59936;51.490;5.436;2023-04-21T06:13:23;101229.09;;;8.26;76.53
72055;BME280;59936;51.490;5.436;2023-04-21T06:15:49;101227.09;;;8.19;76.72
72055;BME280;59936;51.490;5.436;2023-04-21T06:18:15;101229.63;;;8.20;76.58
72055;BME280;59936;51.490;5.436;2023-04-21T06:20:40;101230.09;;;8.35;77.35
72055;BME280;59936;51.490;5.436;2023-04-21T06:23:06;101224.03;;;8.62;80.60
72055;BME280;59936;51.490;5.436;2023-04-21T06:25:32;101228.34;;;8.92;76.04
72055;BME280;59936;51.490;5.436;2023-04-21T06:27:58;101223.50;;;9.34;74.52
72055;BME280;59936;51.490;5.436;2023-04-21T06:30:24;101223.50;;;9.34;74.52
72055;BME280;59936;51.490;5.436;2023-04-21T06:32:49;101221.03;;;9.23;75.68
72055;BME280;59936;51.490;5.436;2023-04-21T06:35:15;101218.22;;;9.24;78.90
72055;BME280;59936;51.490;5.436;2023-04-21T06:37:41;101235.22;;;9.23;75.80
72055;BME280;59936;51.490;5.436;2023-04-21T06:40:07;101240.59;;;9.51;74.31
72055;BME280;59936;51.490;5.436;2023-04-21T06:42:33;101237.22;;;9.49;79.76
72055;BME280;59936;51.490;5.436;2023-04-21T06:44:59;101235.75;;;9.36;76.06
72055;BME280;59936;51.490;5.436;2023-04-21T06:47:25;101239.19;;;9.47;75.93
72055;BME280;59936;51.490;5.436;2023-04-21T06:49:53;101235.81;;;9.82;81.11
72055;BME280;59936;51.490;5.436;2023-04-21T06:52:19;101237.59;;;9.63;76.60
72055;BME280;59936;51.490;5.436;2023-04-21T06:54:45;101228.19;;;9.59;76.61
72055;BME280;59936;51.490;5.436;2023-04-21T06:57:11;101235.16;;;9.70;76.02
72055;BME280;59936;51.490;5.436;2023-04-21T06:59:37;101232.41;;;9.89;74.98
72055;BME280;59936;51.490;5.436;2023-04-21T07:02:03;101226.59;;;9.94;75.30
72055;BME280;59936;51.490;5.436;2023-04-21T07:04:28;101234.28;;;10.06;75.15
72055;BME280;59936;51.490;5.436;2023-04-21T07:06:54;101233.69;;;10.66;73.61
72055;BME280;59936;51.490;5.436;2023-04-21T07:09:20;101233.69;;;10.66;73.61
72055;BME280;59936;51.490;5.436;2023-04-21T07:11:46;101221.34;;;10.55;77.18
72055;BME280;59936;51.490;5.436;2023-04-21T07:14:12;101230.00;;;10.67;74.72
72055;BME280;59936;51.490;5.436;2023-04-21T07:16:37;101221.44;;;10.63;76.66
72055;BME280;59936;51.490;5.436;2023-04-21T07:19:03;101221.81;;;10.68;75.31
72055;BME280;59936;51.490;5.436;2023-04-21T07:21:29;101231.59;;;11.81;72.57
72055;BME280;59936;51.490;5.436;2023-04-21T07:23:55;101231.59;;;11.81;72.57
72055;BME280;59936;51.490;5.436;2023-04-21T07:26:21;101223.09;;;11.52;71.93
72055;BME280;59936;51.490;5.436;2023-04-21T07:28:46;101235.56;;;11.09;73.49
72055;BME280;59936;51.490;5.436;2023-04-21T07:31:12;101226.66;;;11.60;73.69
72055;BME280;59936;51.490;5.436;2023-04-21T07:33:38;101219.41;;;11.95;72.29
72055;BME280;59936;51.490;5.436;2023-04-21T07:36:04;101219.00;;;12.40;70.74
72055;BME280;59936;51.490;5.436;2023-04-21T07:38:30;101218.66;;;12.27;71.13
72055;BME280;59936;51.490;5.436;2023-04-21T07:40:56;101216.94;;;12.18;71.71
72055;BME280;59936;51.490;5.436;2023-04-21T07:43:21;101215.13;;;12.26;69.99
72055;BME280;59936;51.490;5.436;2023-04-21T07:45:47;101212.81;;;12.72;70.95
72055;BME280;59936;51.490;5.436;2023-04-21T07:48:13;101213.44;;;13.14;70.66
72055;BME280;59936;51.490;5.436;2023-04-21T07:50:39;101213.44;;;13.14;70.66
72055;BME280;59936;51.490;5.436;2023-04-21T07:53:05;101204.25;;;13.09;65.67
72055;BME280;59936;51.490;5.436;2023-04-21T07:55:30;101223.91;;;12.77;70.21
72055;BME280;59936;51.490;5.436;2023-04-21T07:57:56;101223.91;;;12.77;70.21
72055;BME280;59936;51.490;5.436;2023-04-21T08:00:22;101212.66;;;12.73;66.99
72055;BME280;59936;51.490;5.436;2023-04-21T08:02:48;101216.50;;;13.03;70.24
72055;BME280;59936;51.490;5.436;2023-04-21T08:05:14;101216.50;;;13.03;70.24
72055;BME280;59936;51.490;5.436;2023-04-21T08:07:40;101212.63;;;13.69;69.09
72055;BME280;59936;51.490;5.436;2023-04-21T08:10:06;101205.19;;;14.18;67.75
72055;BME280;59936;51.490;5.436;2023-04-21T08:12:32;101200.41;;;14.89;67.33
72055;BME280;59936;51.490;5.436;2023-04-21T08:14:58;101194.22;;;15.03;66.14
72055;BME280;59936;51.490;5.436;2023-04-21T08:17:24;101198.81;;;14.80;66.10
72055;BME280;59936;51.490;5.436;2023-04-21T08:19:50;101195.50;;;14.55;66.60
72055;BME280;59936;51.490;5.436;2023-04-21T08:22:16;101204.97;;;13.89;66.48
72055;BME280;59936;51.490;5.436;2023-04-21T08:24:42;101205.84;;;14.21;67.43
72055;BME280;59936;51.490;5.436;2023-04-21T08:27:08;101207.22;;;14.39;65.60
72055;BME280;59936;51.490;5.436;2023-04-21T08:29:33;101192.91;;;14.99;64.12
72055;BME280;59936;51.490;5.436;2023-04-21T08:31:59;101202.50;;;14.64;60.99
72055;BME280;59936;51.490;5.436;2023-04-21T08:34:25;101203.78;;;14.00;63.91
72055;BME280;59936;51.490;5.436;2023-04-21T08:36:51;101203.78;;;14.00;63.91
72055;BME280;59936;51.490;5.436;2023-04-21T08:39:17;101195.66;;;14.31;63.54
72055;BME280;59936;51.490;5.436;2023-04-21T08:41:43;101193.34;;;15.40;61.41
72055;BME280;59936;51.490;5.436;2023-04-21T08:44:09;101193.34;;;15.40;61.41
72055;BME280;59936;51.490;5.436;2023-04-21T08:46:35;101180.31;;;15.59;60.01
72055;BME280;59936;51.490;5.436;2023-04-21T08:49:01;101185.25;;;15.70;60.33
72055;BME280;59936;51.490;5.436;2023-04-21T08:51:28;101185.75;;;15.95;59.98
72055;BME280;59936;51.490;5.436;2023-04-21T08:53:54;101185.13;;;15.78;59.64
72055;BME280;59936;51.490;5.436;2023-04-21T08:56:20;101182.41;;;16.71;58.06
72055;BME280;59936;51.490;5.436;2023-04-21T08:58:46;101185.88;;;16.65;58.48
72055;BME280;59936;51.490;5.436;2023-04-21T09:01:12;101185.88;;;16.65;58.48
72055;BME280;59936;51.490;5.436;2023-04-21T09:03:38;101177.47;;;17.09;56.90
72055;BME280;59936;51.490;5.436;2023-04-21T09:06:06;101184.88;;;15.73;58.84
72055;BME280;59936;51.490;5.436;2023-04-21T09:08:36;101176.97;;;16.29;57.07
72055;BME280;59936;51.490;5.436;2023-04-21T09:11:02;101176.94;;;17.55;56.86
72055;BME280;59936;51.490;5.436;2023-04-21T09:13:31;101170.78;;;17.68;56.33
72055;BME280;59936;51.490;5.436;2023-04-21T09:15:58;101163.50;;;19.02;54.13
72055;BME280;59936;51.490;5.436;2023-04-21T09:18:26;101165.09;;;19.49;52.79
72055;BME280;59936;51.490;5.436;2023-04-21T09:21:28;101161.34;;;19.37;52.91
72055;BME280;59936;51.490;5.436;2023-04-21T09:23:54;101166.44;;;18.60;51.10
72055;BME280;59936;51.490;5.436;2023-04-21T09:26:21;101155.19;;;19.68;53.70
72055;BME280;59936;51.490;5.436;2023-04-21T09:28:48;101146.78;;;19.11;52.46
72055;BME280;59936;51.490;5.436;2023-04-21T09:31:22;101160.69;;;19.54;53.61
72055;BME280;59936;51.490;5.436;2023-04-21T09:33:54;101160.97;;;19.20;53.99
72055;BME280;59936;51.490;5.436;2023-04-21T09:36:26;101159.38;;;19.70;45.61
72055;BME280;59936;51.490;5.436;2023-04-21T09:38:57;101168.75;;;17.83;55.06
72055;BME280;59936;51.490;5.436;2023-04-21T09:41:30;101168.75;;;17.83;55.06
72055;BME280;59936;51.490;5.436;2023-04-21T09:43:56;101158.41;;;19.51;53.07
72055;BME280;59936;51.490;5.436;2023-04-21T09:46:22;101158.41;;;19.51;53.07
72055;BME280;59936;51.490;5.436;2023-04-21T09:48:50;101153.06;;;19.12;54.09
72055;BME280;59936;51.490;5.436;2023-04-21T09:51:17;101150.13;;;19.20;52.45
72055;BME280;59936;51.490;5.436;2023-04-21T09:53:44;101166.31;;;17.53;56.46
72055;BME280;59936;51.490;5.436;2023-04-21T09:56:15;101166.31;;;17.53;56.46
72055;BME280;59936;51.490;5.436;2023-04-21T09:58:57;101158.38;;;17.45;54.75
72055;BME280;59936;51.490;5.436;2023-04-21T10:01:28;101156.91;;;16.80;52.32
72055;BME280;59936;51.490;5.436;2023-04-21T10:03:55;101154.09;;;16.95;55.90
72055;BME280;59936;51.490;5.436;2023-04-21T10:06:22;101154.09;;;16.95;55.90
72055;BME280;59936;51.490;5.436;2023-04-21T10:08:49;101143.38;;;17.97;54.91
72055;BME280;59936;51.490;5.436;2023-04-21T10:11:16;101144.50;;;17.62;54.52
72055;BME280;59936;51.490;5.436;2023-04-21T10:13:42;101140.53;;;17.23;55.40
72055;BME280;59936;51.490;5.436;2023-04-21T10:16:09;101142.84;;;17.61;54.86
72055;BME280;59936;51.490;5.436;2023-04-21T10:18:36;101139.84;;;18.03;54.14
72055;BME280;59936;51.490;5.436;2023-04-21T10:21:10;101134.47;;;17.55;54.12
72055;BME280;59936;51.490;5.436;2023-04-21T10:23:46;101137.97;;;17.49;54.27
72055;BME280;59936;51.490;5.436;2023-04-21T10:26:16;101135.69;;;18.07;51.26
72055;BME280;59936;51.490;5.436;2023-04-21T10:28:53;101128.22;;;18.36;55.24
72055;BME280;59936;51.490;5.436;2023-04-21T10:31:33;101128.22;;;18.36;55.24
72055;BME280;59936;51.490;5.436;2023-04-21T10:36:31;101120.50;;;17.52;53.89
72055;BME280;59936;51.490;5.436;2023-04-21T10:39:03;101113.75;;;17.00;56.29
72055;BME280;59936;51.490;5.436;2023-04-21T10:41:33;101108.50;;;17.33;56.49
72055;BME280;59936;51.490;5.436;2023-04-21T10:44:20;101106.69;;;17.88;54.15
72055;BME280;59936;51.490;5.436;2023-04-21T10:46:48;101099.22;;;18.16;52.58
72055;BME280;59936;51.490;5.436;2023-04-21T10:49:22;101088.81;;;18.79;54.21
72055;BME280;59936;51.490;5.436;2023-04-21T10:54:28;101092.13;;;18.42;54.27
72055;BME280;59936;51.490;5.436;2023-04-21T10:56:56;101092.13;;;18.42;54.27
72055;BME280;59936;51.490;5.436;2023-04-21T10:59:25;101089.03;;;18.71;53.31
72055;BME280;59936;51.490;5.436;2023-04-21T11:01:51;101089.47;;;18.55;53.07
72055;BME280;59936;51.490;5.436;2023-04-21T11:04:19;101095.16;;;17.66;54.50
72055;BME280;59936;51.490;5.436;2023-04-21T11:09:31;101084.19;;;18.14;49.93
72055;BME280;59936;51.490;5.436;2023-04-21T11:11:58;101077.53;;;18.23;52.50
72055;BME280;59936;51.490;5.436;2023-04-21T11:14:24;101069.03;;;18.46;51.73
72055;BME280;59936;51.490;5.436;2023-04-21T11:16:50;101080.25;;;17.42;52.09
72055;BME280;59936;51.490;5.436;2023-04-21T11:19:16;101073.75;;;17.84;51.03
72055;BME280;59936;51.490;5.436;2023-04-21T11:21:42;101056.69;;;18.04;50.67
72055;BME280;59936;51.490;5.436;2023-04-21T11:24:08;101056.69;;;18.04;50.67
72055;BME280;59936;51.490;5.436;2023-04-21T11:26:37;101050.59;;;17.69;50.96
72055;BME280;59936;51.490;5.436;2023-04-21T11:29:04;101041.59;;;17.62;50.79
72055;BME280;59936;51.490;5.436;2023-04-21T11:31:41;101030.22;;;18.65;49.49
72055;BME280;59936;51.490;5.436;2023-04-21T11:34:07;101030.50;;;19.08;46.53
72055;BME280;59936;51.490;5.436;2023-04-21T11:36:40;101028.97;;;18.61;48.58
72055;BME280;59936;51.490;5.436;2023-04-21T11:39:08;101024.16;;;19.27;47.54
72055;BME280;59936;51.490;5.436;2023-04-21T11:41:37;101024.16;;;19.27;47.54
72055;BME280;59936;51.490;5.436;2023-04-21T11:44:03;101005.19;;;19.66;46.66
72055;BME280;59936;51.490;5.436;2023-04-21T11:46:29;101000.34;;;19.68;46.19
72055;BME280;59936;51.490;5.436;2023-04-21T11:49:06;101001.34;;;21.09;43.70
72055;BME280;59936;51.490;5.436;2023-04-21T11:51:34;100995.56;;;21.95;41.64
72055;BME280;59936;51.490;5.436;2023-04-21T11:54:00;100999.84;;;22.96;40.18
72055;BME280;59936;51.490;5.436;2023-04-21T11:56:26;100986.94;;;22.57;40.43
72055;BME280;59936;51.490;5.436;2023-04-21T11:58:52;100989.19;;;22.25;40.78
72055;BME280;59936;51.490;5.436;2023-04-21T12:01:19;101000.56;;;22.10;40.34
72055;BME280;59936;51.490;5.436;2023-04-21T12:03:53;100990.03;;;22.60;40.21
72055;BME280;59936;51.490;5.436;2023-04-21T12:06:23;100999.41;;;21.35;39.74
72055;BME280;59936;51.490;5.436;2023-04-21T12:09:00;100997.00;;;20.72;42.60
72055;BME280;59936;51.490;5.436;2023-04-21T12:11:28;100994.91;;;18.78;44.43
72055;BME280;59936;51.490;5.436;2023-04-21T12:13:57;100996.56;;;17.47;48.70
72055;BME280;59936;51.490;5.436;2023-04-21T12:16:24;100994.97;;;18.25;47.11
72055;BME280;59936;51.490;5.436;2023-04-21T12:18:50;100994.97;;;18.25;47.11
72055;BME280;59936;51.490;5.436;2023-04-21T12:21:16;100985.56;;;18.74;46.33
72055;BME280;59936;51.490;5.436;2023-04-21T12:23:42;100974.63;;;18.87;45.53
72055;BME280;59936;51.490;5.436;2023-04-21T12:26:08;100977.63;;;18.66;45.73
72055;BME280;59936;51.490;5.436;2023-04-21T12:28:34;100972.41;;;18.71;46.09
72055;BME280;59936;51.490;5.436;2023-04-21T12:31:00;100973.31;;;18.25;45.97
72055;BME280;59936;51.490;5.436;2023-04-21T12:33:26;100967.06;;;18.05;46.17
72055;BME280;59936;51.490;5.436;2023-04-21T12:35:51;100972.47;;;17.79;46.51
72055;BME280;59936;51.490;5.436;2023-04-21T12:38:17;100972.47;;;17.79;46.51
72055;BME280;59936;51.490;5.436;2023-04-21T12:40:43;100968.50;;;17.75;46.18
72055;BME280;59936;51.490;5.436;2023-04-21T12:43:09;100966.63;;;17.82;46.37
72055;BME280;59936;51.490;5.436;2023-04-21T12:45:35;100958.31;;;18.10;45.96
72055;BME280;59936;51.490;5.436;2023-04-21T12:48:01;100960.81;;;18.11;46.23
72055;BME280;59936;51.490;5.436;2023-04-21T12:50:27;100964.31;;;18.38;46.21
72055;BME280;59936;51.490;5.436;2023-04-21T12:52:53;100949.53;;;18.14;46.13
72055;BME280;59936;51.490;5.436;2023-04-21T12:55:18;100955.97;;;18.40;45.57
72055;BME280;59936;51.490;5.436;2023-04-21T12:57:44;100945.72;;;18.68;45.10
72055;BME280;59936;51.490;5.436;2023-04-21T13:00:11;100941.97;;;18.56;45.20
72055;BME280;59936;51.490;5.436;2023-04-21T13:02:37;100947.66;;;18.15;45.32